Time;durP1;ratioP1;P1;durP2;ratioP2;P2;SDS_P1;SDS_P2;PMS_P1;PMS_P2;Temp;Humidity;BMP_temperature;BMP_pressure;BME280_temperature;BME280_humidity;BME280_pressure;Samples;Min_cycle;Max_cycle;Signal;HPM_P1;HPM_P2
2021/12/08 00:00:10;;;;;;;14.52;6.63;;;1.70;78.00;;;;;;5051823;28;20637;-67
2021/12/08 00:02:35;;;;;;;9.70;6.38;;;1.70;78.00;;;;;;5053907;28;20036;-66
2021/12/08 00:05:01;;;;;;;11.10;6.82;;;1.70;77.90;;;;;;5052913;28;20471;-66
2021/12/08 00:07:27;;;;;;;11.48;7.00;;;1.70;77.80;;;;;;5053927;28;20024;-66
2021/12/08 00:10:16;;;;;;;15.48;6.70;;;1.70;78.70;;;;;;5053291;28;20526;-66
2021/12/08 00:15:27;;;;;;;13.18;6.75;;;1.70;78.00;;;;;;5054125;28;20149;-67
2021/12/08 00:17:52;;;;;;;15.40;6.88;;;1.70;78.00;;;;;;5055713;28;20086;-67
2021/12/08 00:20:19;;;;;;;12.25;6.82;;;1.70;78.00;;;;;;5055370;28;20639;-66
2021/12/08 00:22:45;;;;;;;9.75;6.25;;;1.70;78.00;;;;;;5052361;28;20033;-66
2021/12/08 00:25:10;;;;;;;10.32;6.07;;;1.70;78.00;;;;;;5060873;28;20154;-67
2021/12/08 00:27:36;;;;;;;12.70;6.07;;;1.60;78.10;;;;;;5058428;28;20081;-68
2021/12/08 00:30:03;;;;;;;10.40;5.72;;;1.60;78.30;;;;;;5056572;28;20175;-66
2021/12/08 00:32:31;;;;;;;9.93;5.38;;;1.60;78.40;;;;;;5057710;28;20832;-67
2021/12/08 00:34:57;;;;;;;11.07;5.60;;;1.50;78.50;;;;;;5058751;28;20534;-66
2021/12/08 00:37:24;;;;;;;9.98;5.93;;;1.50;78.60;;;;;;5058296;28;20036;-66
2021/12/08 00:39:50;;;;;;;13.93;5.75;;;1.50;79.00;;;;;;5058996;28;20501;-66
2021/12/08 00:42:15;;;;;;;10.82;5.88;;;1.50;79.10;;;;;;5059738;28;20033;-67
2021/12/08 00:44:41;;;;;;;8.85;6.20;;;1.50;79.20;;;;;;5059377;28;20407;-66
2021/12/08 00:47:07;;;;;;;9.60;5.63;;;1.50;79.30;;;;;;5055285;28;20453;-67
2021/12/08 00:49:33;;;;;;;9.15;5.60;;;1.60;79.30;;;;;;5058834;28;20497;-66
2021/12/08 00:51:58;;;;;;;8.25;5.57;;;1.60;79.30;;;;;;5058410;28;20060;-66
2021/12/08 00:54:24;;;;;;;12.25;5.97;;;1.70;79.30;;;;;;5059550;28;20041;-66
2021/12/08 00:56:50;;;;;;;11.02;6.30;;;1.70;79.30;;;;;;5057425;28;20048;-66
2021/12/08 00:59:15;;;;;;;10.60;6.13;;;1.70;79.30;;;;;;5058354;28;20038;-66
2021/12/08 01:01:41;;;;;;;10.38;5.78;;;1.80;79.30;;;;;;5056099;28;20495;-66
2021/12/08 01:04:07;;;;;;;9.10;5.30;;;1.80;79.20;;;;;;5059097;28;20107;-66
2021/12/08 01:06:33;;;;;;;10.50;5.47;;;1.80;79.20;;;;;;5056397;28;20036;-66
2021/12/08 01:08:59;;;;;;;8.13;5.85;;;1.80;79.30;;;;;;5056872;28;20074;-66
2021/12/08 01:11:26;;;;;;;10.00;5.53;;;1.80;79.20;;;;;;5059102;28;20060;-66
2021/12/08 01:13:52;;;;;;;12.40;5.72;;;1.80;79.20;;;;;;5055987;28;20044;-66
2021/12/08 01:16:21;;;;;;;10.52;5.53;;;1.90;79.10;;;;;;5059786;28;20032;-66
2021/12/08 01:18:47;;;;;;;11.48;5.63;;;1.90;79.10;;;;;;5054964;28;20384;-65
2021/12/08 01:21:14;;;;;;;11.00;5.60;;;1.90;79.00;;;;;;5057196;28;20095;-67
2021/12/08 01:23:40;;;;;;;9.02;5.15;;;1.90;78.80;;;;;;5057869;28;20340;-66
2021/12/08 01:26:07;;;;;;;10.82;6.05;;;1.90;78.80;;;;;;5058984;28;20067;-67
2021/12/08 01:28:33;;;;;;;8.68;5.05;;;2.00;78.90;;;;;;5045021;28;20101;-67
2021/12/08 01:31:01;;;;;;;9.18;5.78;;;2.00;78.90;;;;;;5057772;28;20044;-66
2021/12/08 01:33:31;;;;;;;7.85;5.40;;;2.00;79.00;;;;;;5056681;28;20029;-66
2021/12/08 01:35:57;;;;;;;9.48;5.63;;;2.00;78.80;;;;;;5056762;28;20025;-66
2021/12/08 01:38:24;;;;;;;7.40;4.85;;;2.10;78.80;;;;;;5057434;28;20051;-66
2021/12/08 01:40:50;;;;;;;9.80;5.78;;;2.10;78.80;;;;;;5057633;28;20028;-67
2021/12/08 01:43:40;;;;;;;12.02;5.82;;;2.10;78.80;;;;;;5057835;28;20547;-67
2021/12/08 01:46:08;;;;;;;9.27;5.70;;;2.20;78.60;;;;;;5059980;28;20066;-67
2021/12/08 01:48:37;;;;;;;7.68;5.40;;;2.20;78.30;;;;;;5055557;28;20067;-66
2021/12/08 01:51:05;;;;;;;12.40;5.43;;;2.20;78.30;;;;;;5057009;28;20093;-67
2021/12/08 01:53:32;;;;;;;9.82;5.60;;;2.20;78.30;;;;;;5057517;28;20029;-66
2021/12/08 01:55:58;;;;;;;13.10;5.55;;;2.20;78.20;;;;;;5057944;28;20036;-67
2021/12/08 01:58:25;;;;;;;8.80;5.32;;;2.20;78.30;;;;;;5055247;28;20028;-67
2021/12/08 02:00:56;;;;;;;9.77;5.63;;;2.20;78.30;;;;;;5056310;28;20017;-66
2021/12/08 02:03:27;;;;;;;11.27;5.38;;;2.20;78.40;;;;;;5043030;28;20028;-66
2021/12/08 02:05:54;;;;;;;8.52;5.47;;;2.20;78.30;;;;;;5058570;28;20033;-67
2021/12/08 02:08:21;;;;;;;8.35;5.45;;;2.30;78.30;;;;;;5036535;28;20033;-66
2021/12/08 02:10:47;;;;;;;10.52;6.07;;;2.30;78.10;;;;;;5052998;28;20103;-66
2021/12/08 02:13:13;;;;;;;9.35;6.00;;;2.30;78.10;;;;;;5056266;28;20491;-69
2021/12/08 02:15:39;;;;;;;10.25;5.95;;;2.30;78.10;;;;;;5055876;28;20029;-65
2021/12/08 02:18:08;;;;;;;10.48;6.18;;;2.20;78.00;;;;;;5041867;28;20205;-68
2021/12/08 02:20:33;;;;;;;11.10;6.25;;;2.20;78.10;;;;;;5053742;28;20029;-65
2021/12/08 02:22:59;;;;;;;9.80;5.68;;;2.20;78.30;;;;;;5058332;28;20036;-66
2021/12/08 02:25:26;;;;;;;10.88;6.25;;;2.20;78.30;;;;;;5057096;28;20575;-65
2021/12/08 02:27:55;;;;;;;9.35;5.85;;;2.20;78.40;;;;;;5054798;28;20057;-65
2021/12/08 02:49:22;;;;;;;10.57;5.95;;;2.20;78.30;;;;;;5041327;28;20032;-66
2021/12/08 02:51:50;;;;;;;11.40;5.90;;;2.20;78.40;;;;;;5054219;28;20032;-66
2021/12/08 02:54:18;;;;;;;16.83;6.03;;;2.20;78.30;;;;;;5053991;28;20040;-65
2021/12/08 02:56:43;;;;;;;10.65;6.13;;;2.20;78.40;;;;;;5053205;28;20036;-68
2021/12/08 02:59:09;;;;;;;9.38;5.68;;;2.20;78.50;;;;;;5054316;28;20384;-66
2021/12/08 03:01:36;;;;;;;9.88;6.10;;;2.20;78.50;;;;;;5035771;28;20173;-65
2021/12/08 03:04:06;;;;;;;9.88;5.50;;;2.20;78.60;;;;;;5055108;28;20089;-66
2021/12/08 03:06:32;;;;;;;11.90;5.43;;;2.20;78.60;;;;;;5053393;28;20040;-64
2021/12/08 03:08:57;;;;;;;8.80;5.28;;;2.20;78.70;;;;;;5055135;28;20040;-68
2021/12/08 03:11:24;;;;;;;8.23;5.00;;;2.20;78.70;;;;;;5051406;28;20044;-66
2021/12/08 03:14:05;;;;;;;8.15;5.20;;;2.20;78.80;;;;;;5054996;28;20112;-66
2021/12/08 03:16:31;;;;;;;10.45;5.20;;;2.20;79.00;;;;;;5056162;28;20063;-67
2021/12/08 03:18:57;;;;;;;8.52;5.50;;;2.20;78.90;;;;;;5054734;28;20075;-66
2021/12/08 03:21:29;;;;;;;10.32;5.15;;;2.30;79.00;;;;;;5052967;28;20543;-65
2021/12/08 03:24:14;;;;;;;9.70;5.75;;;2.30;78.90;;;;;;5055875;28;20029;-65
2021/12/08 03:27:33;;;;;;;13.40;5.78;;;2.20;78.80;;;;;;5054453;28;20029;-66
2021/12/08 03:32:06;;;;;;;10.70;5.70;;;2.30;78.80;;;;;;5054324;28;20032;-66
2021/12/08 03:34:37;;;;;;;11.55;5.90;;;2.30;79.00;;;;;;5038788;28;20032;-66
2021/12/08 03:37:07;;;;;;;9.57;5.70;;;2.30;79.00;;;;;;5054275;28;20044;-67
2021/12/08 03:39:33;;;;;;;7.57;4.78;;;2.30;79.00;;;;;;5056573;28;20684;-66
2021/12/08 03:42:01;;;;;;;7.85;5.53;;;2.30;79.20;;;;;;5054561;28;20089;-66
2021/12/08 03:44:27;;;;;;;9.63;5.28;;;2.40;79.30;;;;;;5054337;28;20047;-66
2021/12/08 03:47:00;;;;;;;8.20;4.85;;;2.40;79.30;;;;;;5054805;28;20036;-66
2021/12/08 03:49:28;;;;;;;7.95;5.30;;;2.50;79.50;;;;;;5055900;28;20632;-65
2021/12/08 03:51:58;;;;;;;9.35;5.28;;;2.50;79.50;;;;;;5052020;28;20779;-66
2021/12/08 03:54:24;;;;;;;9.73;5.50;;;2.50;79.50;;;;;;5056298;28;20041;-67
2021/12/08 03:56:50;;;;;;;9.27;5.38;;;2.60;79.50;;;;;;5054957;28;20503;-65
2021/12/08 03:59:15;;;;;;;6.68;5.10;;;2.60;79.50;;;;;;5060738;28;20552;-67
2021/12/08 04:01:41;;;;;;;7.55;5.35;;;2.60;79.50;;;;;;5060939;28;20036;-66
2021/12/08 04:04:09;;;;;;;6.65;5.35;;;2.70;80.40;;;;;;5062358;28;20060;-66
2021/12/08 04:06:49;;;;;;;7.25;5.25;;;2.70;79.60;;;;;;5058765;28;20065;-65
2021/12/08 04:09:24;;;;;;;9.05;6.40;;;2.70;79.50;;;;;;5060435;28;21288;-64
2021/12/08 04:11:51;;;;;;;8.50;5.82;;;2.70;79.50;;;;;;5060202;28;20120;-65
2021/12/08 04:14:19;;;;;;;8.70;5.88;;;2.70;80.40;;;;;;5060248;28;20036;-65
2021/12/08 04:16:55;;;;;;;8.98;5.80;;;2.70;79.70;;;;;;5061941;28;20036;-64
2021/12/08 04:19:22;;;;;;;9.98;5.85;;;2.80;79.90;;;;;;5061844;28;20025;-65
2021/12/08 04:21:50;;;;;;;7.18;5.78;;;2.80;79.80;;;;;;5062978;28;20460;-65
2021/12/08 04:24:17;;;;;;;8.93;5.68;;;2.80;79.80;;;;;;5061605;28;20036;-65
2021/12/08 04:27:06;;;;;;;6.57;5.30;;;2.80;79.90;;;;;;5057954;28;20052;-65
2021/12/08 04:29:36;;;;;;;8.00;5.35;;;2.80;80.00;;;;;;5062422;28;20452;-65
2021/12/08 04:32:05;;;;;;;9.77;6.25;;;2.80;80.10;;;;;;5060915;28;20116;-65
2021/12/08 04:34:37;;;;;;;8.38;5.97;;;2.80;80.30;;;;;;5059108;28;20040;-65
2021/12/08 04:37:16;;;;;;;7.30;5.68;;;2.80;80.50;;;;;;5059483;28;20385;-66
2021/12/08 04:40:05;;;;;;;8.27;6.05;;;2.80;80.50;;;;;;5041059;28;20040;-66
2021/12/08 04:43:03;;;;;;;8.25;5.82;;;2.80;80.60;;;;;;5058862;28;20036;-69
2021/12/08 04:45:46;;;;;;;10.50;6.68;;;2.80;80.50;;;;;;5058739;28;20130;-66
2021/12/08 04:48:28;;;;;;;9.35;6.65;;;2.80;80.60;;;;;;5058827;28;20059;-66
2021/12/08 04:51:24;;;;;;;9.38;6.65;;;2.90;80.60;;;;;;5039891;28;21933;-68
2021/12/08 05:08:13;;;;;;;11.48;6.43;;;2.90;80.60;;;;;;5050934;28;20032;-65
2021/12/08 05:10:39;;;;;;;12.02;6.05;;;2.90;80.60;;;;;;5057202;28;20033;-64
2021/12/08 05:13:07;;;;;;;9.60;5.85;;;3.00;80.70;;;;;;5056517;28;20051;-66
2021/12/08 05:15:47;;;;;;;43.92;19.05;;;3.00;80.90;;;;;;5057057;28;20032;-65
2021/12/08 05:18:33;;;;;;;24.42;11.52;;;3.00;80.70;;;;;;5059839;28;20045;-66
2021/12/08 05:21:29;;;;;;;13.88;7.88;;;3.10;80.70;;;;;;5056335;28;20037;-66
2021/12/08 05:24:03;;;;;;;11.70;6.55;;;3.10;81.10;;;;;;5055343;28;20082;-65
2021/12/08 05:26:44;;;;;;;8.55;6.22;;;3.10;80.40;;;;;;5050780;28;20110;-66
2021/12/08 05:29:18;;;;;;;8.13;5.85;;;3.10;80.40;;;;;;5043230;28;20463;-66
2021/12/08 05:31:44;;;;;;;9.77;6.57;;;3.00;80.50;;;;;;5057961;28;20036;-65
2021/12/08 05:34:10;;;;;;;9.63;6.78;;;3.00;80.70;;;;;;5058776;28;20390;-68
2021/12/08 05:36:37;;;;;;;10.50;6.53;;;3.10;80.70;;;;;;5057906;28;20941;-68
2021/12/08 05:39:07;;;;;;;10.10;6.63;;;3.00;80.90;;;;;;5059163;28;20120;-68
2021/12/08 05:41:36;;;;;;;11.13;6.80;;;3.00;81.10;;;;;;5059982;28;20025;-68
2021/12/08 05:44:03;;;;;;;13.23;7.10;;;3.00;81.20;;;;;;5058524;28;20032;-68
2021/12/08 05:46:32;;;;;;;9.77;6.55;;;3.00;81.30;;;;;;5058961;28;20028;-68
2021/12/08 05:48:59;;;;;;;11.80;6.88;;;3.10;81.40;;;;;;5059792;28;20365;-68
2021/12/08 05:51:29;;;;;;;10.35;6.75;;;3.10;81.40;;;;;;5058051;28;20047;-69
2021/12/08 05:53:58;;;;;;;9.98;6.50;;;3.10;81.40;;;;;;5060290;28;20321;-67
2021/12/08 05:56:26;;;;;;;12.70;7.60;;;3.10;82.20;;;;;;5058907;28;20028;-66
2021/12/08 05:58:54;;;;;;;13.13;7.55;;;3.10;81.30;;;;;;5059071;28;20025;-69
2021/12/08 06:01:28;;;;;;;9.45;6.20;;;3.20;81.40;;;;;;5059207;28;20033;-68
2021/12/08 06:03:54;;;;;;;9.38;6.05;;;3.20;81.50;;;;;;5059004;28;20033;-67
2021/12/08 06:06:22;;;;;;;8.23;5.90;;;3.20;81.40;;;;;;5058564;28;20403;-68
2021/12/08 06:08:49;;;;;;;12.52;6.85;;;3.20;81.50;;;;;;5057446;28;20037;-69
2021/12/08 06:11:15;;;;;;;9.00;6.05;;;3.20;81.40;;;;;;5059628;28;20043;-68
2021/12/08 06:13:42;;;;;;;11.13;6.10;;;3.20;81.50;;;;;;5060087;28;20451;-66
2021/12/08 06:16:10;;;;;;;8.63;6.28;;;3.20;81.50;;;;;;5057910;28;20119;-65
2021/12/08 06:18:39;;;;;;;10.63;5.93;;;3.20;81.60;;;;;;5057775;28;20037;-65
2021/12/08 06:21:10;;;;;;;7.95;5.90;;;3.30;81.80;;;;;;5058692;28;20033;-66
2021/12/08 06:23:38;;;;;;;7.47;5.50;;;3.30;81.70;;;;;;5056907;28;20048;-65
2021/12/08 06:26:05;;;;;;;9.38;5.60;;;3.30;81.70;;;;;;5058737;28;20045;-66
2021/12/08 06:28:32;;;;;;;13.48;6.68;;;3.30;81.70;;;;;;5058052;28;20047;-65
2021/12/08 06:30:58;;;;;;;12.35;6.47;;;3.30;81.80;;;;;;5057934;28;20109;-67
2021/12/08 06:33:23;;;;;;;8.73;4.82;;;3.30;81.80;;;;;;5058777;28;20063;-68
2021/12/08 06:35:56;;;;;;;9.15;5.22;;;3.40;81.80;;;;;;5057443;28;20463;-70
2021/12/08 06:38:23;;;;;;;18.67;9.15;;;3.40;81.80;;;;;;5057465;28;20036;-68
2021/12/08 06:41:09;;;;;;;39.33;14.43;;;3.40;81.70;;;;;;5059105;28;20032;-68
2021/12/08 06:43:42;;;;;;;20.75;9.02;;;3.50;82.00;;;;;;5058591;28;20120;-67
2021/12/08 06:46:08;;;;;;;12.30;7.03;;;3.50;81.80;;;;;;5058340;28;20511;-67
2021/12/08 06:48:42;;;;;;;10.05;6.13;;;3.50;81.80;;;;;;5044588;28;20525;-67
2021/12/08 06:51:13;;;;;;;65.20;18.67;;;3.60;81.80;;;;;;5058315;28;20131;-67
2021/12/08 06:53:40;;;;;;;145.90;36.25;;;3.60;81.70;;;;;;5057895;28;20039;-66
2021/12/08 06:56:10;;;;;;;57.25;17.95;;;3.60;81.60;;;;;;5055909;28;20033;-64
2021/12/08 06:58:41;;;;;;;31.38;11.65;;;3.60;81.60;;;;;;5054842;28;20331;-67
2021/12/08 07:09:10;;;;;;;40.00;20.55;;;3.60;81.80;;;;;;5057355;28;20066;-69
2021/12/08 07:11:36;;;;;;;27.50;14.65;;;3.70;81.80;;;;;;5057193;28;20087;-69
2021/12/08 07:14:03;;;;;;;15.98;8.65;;;3.60;81.70;;;;;;5056647;28;20029;-67
2021/12/08 07:16:33;;;;;;;7.72;5.45;;;3.70;81.80;;;;;;5056009;28;20036;-69
2021/12/08 07:19:10;;;;;;;7.47;4.90;;;3.70;81.80;;;;;;5058942;28;20054;-68
2021/12/08 07:21:43;;;;;;;5.82;4.38;;;3.70;81.70;;;;;;5056281;28;20025;-68
2021/12/08 07:24:15;;;;;;;6.15;4.65;;;3.80;81.70;;;;;;5057407;28;20083;-67
2021/12/08 07:26:42;;;;;;;5.50;4.28;;;3.80;81.70;;;;;;5056912;28;20493;-67
2021/12/08 07:29:11;;;;;;;7.95;5.78;;;3.80;81.60;;;;;;5057786;28;20454;-67
2021/12/08 07:31:47;;;;;;;7.18;5.10;;;3.80;81.60;;;;;;5057327;28;20035;-66
2021/12/08 07:34:18;;;;;;;6.32;5.22;;;3.90;81.60;;;;;;5055243;28;20041;-66
2021/12/08 07:36:48;;;;;;;5.90;4.70;;;3.90;81.60;;;;;;5056995;28;20039;-68
2021/12/08 07:39:21;;;;;;;7.90;5.53;;;3.90;81.50;;;;;;5057930;28;20033;-68
2021/12/08 07:41:52;;;;;;;9.45;7.38;;;3.90;81.60;;;;;;5058519;28;20041;-67
2021/12/08 07:44:20;;;;;;;8.65;6.72;;;3.90;81.50;;;;;;5057092;28;22203;-66
2021/12/08 07:46:51;;;;;;;7.55;6.22;;;3.90;81.50;;;;;;5054578;28;20043;-67
2021/12/08 07:49:19;;;;;;;9.52;7.25;;;3.90;81.70;;;;;;5058075;28;20059;-67
2021/12/08 07:51:45;;;;;;;7.43;6.38;;;3.90;81.70;;;;;;5056729;28;20071;-66
2021/12/08 07:54:12;;;;;;;10.25;7.22;;;3.90;81.80;;;;;;5056346;28;20052;-65
2021/12/08 07:56:43;;;;;;;10.07;7.85;;;3.90;81.80;;;;;;5056333;28;20029;-67
2021/12/08 07:59:11;;;;;;;10.70;7.60;;;4.00;81.80;;;;;;5057857;28;20063;-67
2021/12/08 08:01:40;;;;;;;8.38;6.90;;;3.90;81.80;;;;;;5057944;28;20489;-67
2021/12/08 08:04:11;;;;;;;8.05;6.18;;;3.90;81.80;;;;;;5056147;28;20051;-67
2021/12/08 08:06:41;;;;;;;7.82;5.90;;;4.00;82.00;;;;;;5055207;28;20404;-66
2021/12/08 08:09:14;;;;;;;6.07;5.35;;;4.00;81.90;;;;;;5038735;28;20036;-67
2021/12/08 08:11:44;;;;;;;8.25;5.20;;;4.00;81.90;;;;;;5055691;28;20036;-68
2021/12/08 08:14:12;;;;;;;5.28;4.75;;;4.00;82.00;;;;;;5055217;28;20040;-67
2021/12/08 08:16:39;;;;;;;6.25;5.00;;;4.00;81.90;;;;;;5056335;28;20025;-65
2021/12/08 08:19:12;;;;;;;9.13;5.90;;;4.00;81.80;;;;;;5055941;28;20506;-66
2021/12/08 08:21:45;;;;;;;8.82;6.75;;;4.10;81.80;;;;;;5038762;28;20502;-66
2021/12/08 08:24:12;;;;;;;10.20;7.05;;;4.00;81.60;;;;;;5054596;28;20450;-67
2021/12/08 08:26:40;;;;;;;13.98;9.25;;;4.10;81.60;;;;;;5053839;28;20037;-67
2021/12/08 08:29:07;;;;;;;19.83;11.55;;;4.10;81.50;;;;;;5057856;28;20105;-66
2021/12/08 08:31:47;;;;;;;18.70;11.18;;;4.10;81.50;;;;;;5055994;28;20029;-68
2021/12/08 08:34:13;;;;;;;16.13;10.48;;;4.10;81.60;;;;;;5056421;28;20060;-67
2021/12/08 08:36:44;;;;;;;18.10;10.93;;;4.20;81.70;;;;;;5055352;28;20040;-69
2021/12/08 08:39:18;;;;;;;12.88;9.05;;;4.10;81.70;;;;;;5055622;28;20306;-67
2021/12/08 08:41:50;;;;;;;11.13;7.65;;;4.10;81.70;;;;;;5056072;28;20037;-66
2021/12/08 08:44:23;;;;;;;9.93;7.38;;;4.20;81.70;;;;;;5056957;28;20052;-67
2021/12/08 08:46:51;;;;;;;9.30;7.07;;;4.20;81.80;;;;;;5060024;28;20641;-67
2021/12/08 08:49:22;;;;;;;12.07;8.50;;;4.20;81.80;;;;;;5060971;28;20063;-67
2021/12/08 08:52:00;;;;;;;13.57;9.40;;;4.20;82.10;;;;;;5059871;28;20032;-67
2021/12/08 08:54:30;;;;;;;12.98;8.52;;;4.20;82.50;;;;;;5058722;28;20062;-67
2021/12/08 08:57:09;;;;;;;11.57;7.93;;;4.30;81.60;;;;;;5059352;28;20476;-67
2021/12/08 08:59:43;;;;;;;11.38;8.20;;;4.20;81.60;;;;;;5059221;28;20565;-68
2021/12/08 09:02:12;;;;;;;19.23;10.23;;;4.30;81.50;;;;;;5056867;28;20642;-65
2021/12/08 09:04:41;;;;;;;31.88;15.15;;;4.30;81.50;;;;;;5060465;28;20029;-68
2021/12/08 09:07:13;;;;;;;27.45;14.52;;;4.30;81.60;;;;;;5061803;28;20045;-65
2021/12/08 09:09:41;;;;;;;22.05;12.50;;;4.30;81.50;;;;;;5063694;28;20991;-66
2021/12/08 09:12:16;;;;;;;20.17;11.88;;;4.30;81.60;;;;;;5060296;28;20106;-64
2021/12/08 09:15:03;;;;;;;19.88;11.18;;;4.30;81.60;;;;;;5061847;28;20052;-69
2021/12/08 09:17:44;;;;;;;15.38;10.30;;;4.30;81.60;;;;;;5061489;28;20503;-64
2021/12/08 09:20:27;;;;;;;18.60;10.82;;;4.30;81.50;;;;;;5061616;28;20170;-68
2021/12/08 09:23:20;;;;;;;14.13;9.60;;;4.30;81.60;;;;;;5059545;28;20021;-64
2021/12/08 09:25:56;;;;;;;13.55;9.13;;;4.40;81.50;;;;;;5060946;28;20816;-66
2021/12/08 09:28:29;;;;;;;16.10;10.18;;;4.30;81.50;;;;;;5059971;28;20563;-64
2021/12/08 09:31:06;;;;;;;21.67;11.50;;;4.30;81.40;;;;;;5059869;28;20495;-67
2021/12/08 09:33:39;;;;;;;7.63;5.88;;;4.30;81.40;;;;;;5046352;28;20352;-66
2021/12/08 09:36:13;;;;;;;7.28;6.03;;;4.30;81.40;;;;;;5058942;28;20032;-67
2021/12/08 09:38:49;;;;;;;6.15;5.55;;;4.30;81.40;;;;;;5060527;28;20068;-66
2021/12/08 09:41:24;;;;;;;5.95;5.10;;;4.20;81.60;;;;;;5060892;28;20033;-67
2021/12/08 09:43:55;;;;;;;6.88;5.40;;;4.20;81.80;;;;;;5060143;28;20567;-66
2021/12/08 09:46:27;;;;;;;7.05;5.80;;;4.20;82.60;;;;;;5060332;28;20443;-66
2021/12/08 09:48:53;;;;;;;11.20;7.50;;;4.30;82.00;;;;;;5058040;28;20036;-67
2021/12/08 09:51:24;;;;;;;11.52;8.38;;;4.30;81.80;;;;;;5060138;28;20029;-66
2021/12/08 09:53:50;;;;;;;13.50;9.25;;;4.30;81.80;;;;;;5057965;28;20040;-66
2021/12/08 09:56:18;;;;;;;14.32;9.55;;;4.30;81.80;;;;;;5059031;28;20058;-66
2021/12/08 09:58:45;;;;;;;14.82;9.57;;;4.30;81.70;;;;;;5059651;28;20025;-66
2021/12/08 10:01:16;;;;;;;14.60;9.52;;;4.30;81.60;;;;;;5060348;28;20071;-66
2021/12/08 10:03:43;;;;;;;15.85;10.32;;;4.30;81.60;;;;;;5059932;28;20035;-65
2021/12/08 10:06:10;;;;;;;19.63;11.50;;;4.40;81.50;;;;;;5059770;28;20041;-66
2021/12/08 10:08:36;;;;;;;17.90;12.70;;;4.40;81.40;;;;;;5045986;28;20048;-66
2021/12/08 10:11:02;;;;;;;16.95;10.57;;;4.40;81.40;;;;;;5060727;28;20037;-67
2021/12/08 10:13:28;;;;;;;12.82;9.02;;;4.40;81.30;;;;;;5059756;28;20059;-66
2021/12/08 10:15:53;;;;;;;12.98;8.35;;;4.30;82.20;;;;;;5060264;28;20373;-66
2021/12/08 10:18:19;;;;;;;19.10;9.85;;;4.40;81.40;;;;;;5057371;28;20036;-67
2021/12/08 10:20:53;;;;;;;18.45;11.48;;;4.40;81.40;;;;;;5059772;28;20527;-68
2021/12/08 10:23:48;;;;;;;14.35;8.70;;;4.40;81.40;;;;;;5059965;28;20032;-66
2021/12/08 10:26:23;;;;;;;10.73;7.80;;;4.40;81.60;;;;;;5041136;28;20045;-65
2021/12/08 10:28:50;;;;;;;;;;;4.30;81.30;;;;;;5060727;28;20502;-66
2021/12/08 10:31:27;;;;;;;13.90;9.30;;;4.40;81.80;;;;;;5058665;28;19927;-66
2021/12/08 10:34:10;;;;;;;12.43;8.40;;;4.30;81.30;;;;;;5040803;28;20388;-66
2021/12/08 10:36:55;;;;;;;8.43;6.10;;;4.20;81.40;;;;;;5058112;28;20029;-67
2021/12/08 10:39:23;;;;;;;8.23;6.72;;;4.20;81.50;;;;;;5059323;28;20032;-69
2021/12/08 10:41:54;;;;;;;6.03;5.43;;;4.10;81.40;;;;;;5058642;28;20032;-66
2021/12/08 10:47:37;;;;;;;5.43;4.88;;;4.10;82.30;;;;;;5014574;28;20028;-67
2021/12/08 10:55:33;;;;;;;6.28;5.10;;;4.10;82.50;;;;;;5057817;28;20052;-70
2021/12/08 10:57:59;;;;;;;7.85;6.43;;;4.10;82.40;;;;;;5059306;28;20076;-68
2021/12/08 11:00:37;;;;;;;6.18;5.25;;;4.10;82.50;;;;;;5060342;28;20039;-67
2021/12/08 11:03:08;;;;;;;8.35;7.20;;;4.20;82.60;;;;;;5060860;28;20392;-66
2021/12/08 11:05:56;;;;;;;8.82;7.40;;;4.20;82.40;;;;;;5058997;28;20033;-68
2021/12/08 11:08:38;;;;;;;7.53;6.82;;;4.30;82.50;;;;;;5058541;28;20051;-67
2021/12/08 11:11:41;;;;;;;7.30;6.50;;;4.30;82.30;;;;;;5058512;28;20045;-69
2021/12/08 11:14:07;;;;;;;9.65;6.32;;;4.40;82.50;;;;;;5010925;28;20109;-67
2021/12/08 11:16:39;;;;;;;7.45;6.65;;;4.40;82.10;;;;;;5059361;28;20033;-67
2021/12/08 11:19:11;;;;;;;7.60;6.72;;;4.40;82.10;;;;;;5055777;28;20065;-68
2021/12/08 11:21:49;;;;;;;7.55;6.00;;;4.40;81.80;;;;;;5057502;28;20066;-68
2021/12/08 11:24:33;;;;;;;6.03;5.30;;;4.40;81.80;;;;;;5059023;28;20512;-68
2021/12/08 11:27:01;;;;;;;6.22;5.60;;;4.40;81.80;;;;;;5057811;28;20101;-68
2021/12/08 11:29:31;;;;;;;7.70;6.40;;;4.40;81.80;;;;;;5058959;28;20040;-68
2021/12/08 11:32:01;;;;;;;8.80;7.55;;;4.40;81.70;;;;;;5056766;28;20114;-68
2021/12/08 11:34:39;;;;;;;7.80;7.00;;;4.40;81.80;;;;;;5056221;28;20033;-69
2021/12/08 11:37:25;;;;;;;7.25;6.50;;;4.40;81.80;;;;;;5056777;28;20245;-68
2021/12/08 11:39:57;;;;;;;9.20;7.10;;;4.40;81.80;;;;;;5058348;28;20027;-68
2021/12/08 11:42:26;;;;;;;10.65;8.00;;;4.50;81.80;;;;;;5057063;28;20041;-67
2021/12/08 11:44:59;;;;;;;10.10;7.32;;;4.50;81.70;;;;;;5056305;28;20668;-68
2021/12/08 11:47:33;;;;;;;8.40;6.95;;;4.50;81.70;;;;;;5059755;28;20344;-68
2021/12/08 11:50:07;;;;;;;10.13;6.93;;;4.60;81.80;;;;;;5059427;28;20040;-68
2021/12/08 11:52:32;;;;;;;9.02;7.18;;;4.50;81.60;;;;;;5057860;28;20407;-68
2021/12/08 11:55:01;;;;;;;8.40;7.03;;;4.60;81.40;;;;;;5058468;28;20503;-71
2021/12/08 11:57:36;;;;;;;10.80;7.88;;;4.60;81.30;;;;;;5057853;28;20048;-68
2021/12/08 12:00:30;;;;;;;9.07;7.28;;;4.60;81.30;;;;;;5059523;28;20048;-68
2021/12/08 12:03:02;;;;;;;8.68;6.80;;;4.50;81.30;;;;;;5058538;28;20033;-68
2021/12/08 12:05:29;;;;;;;8.05;6.55;;;4.50;81.10;;;;;;5040788;28;20390;-68
2021/12/08 12:07:56;;;;;;;8.45;6.68;;;4.50;81.00;;;;;;5057515;28;20053;-68
2021/12/08 12:10:25;;;;;;;7.47;6.60;;;4.50;81.30;;;;;;5057906;28;20047;-67
2021/12/08 12:12:51;;;;;;;7.32;6.55;;;4.40;81.10;;;;;;5054567;28;20075;-68
2021/12/08 12:15:19;;;;;;;9.32;7.38;;;4.40;81.30;;;;;;5057436;28;20043;-70
2021/12/08 12:17:49;;;;;;;9.85;7.18;;;4.30;81.30;;;;;;5057451;28;20420;-68
2021/12/08 12:20:25;;;;;;;7.63;6.47;;;4.30;81.40;;;;;;5060675;28;20033;-68
2021/12/08 12:23:22;;;;;;;8.50;6.60;;;4.40;81.60;;;;;;5043093;28;20060;-69
2021/12/08 12:26:12;;;;;;;7.57;6.47;;;4.30;81.80;;;;;;5062287;28;20040;-68
2021/12/08 12:28:53;;;;;;;7.22;5.90;;;4.30;82.10;;;;;;5043075;28;20033;-68
2021/12/08 12:31:39;;;;;;;6.57;5.88;;;4.30;82.20;;;;;;5062543;28;20026;-69
2021/12/08 12:34:39;;;;;;;8.50;6.90;;;4.40;82.50;;;;;;5062242;28;20061;-69
2021/12/08 12:37:15;;;;;;;13.95;8.70;;;4.40;82.40;;;;;;5061684;28;20403;-67
2021/12/08 12:39:49;;;;;;;13.32;8.82;;;4.40;82.10;;;;;;5061715;28;20025;-68
2021/12/08 12:42:16;;;;;;;16.27;9.65;;;4.50;82.10;;;;;;5060009;28;20165;-70
2021/12/08 12:45:01;;;;;;;20.67;11.80;;;4.40;81.90;;;;;;5059376;28;20037;-68
2021/12/08 12:47:30;;;;;;;18.58;12.50;;;4.50;82.00;;;;;;5059811;28;20459;-69
2021/12/08 12:50:52;;;;;;;17.23;11.48;;;4.50;81.80;;;;;;5060733;28;20028;-70
2021/12/08 12:53:50;;;;;;;15.73;11.18;;;4.60;81.90;;;;;;4980231;28;20058;-67
2021/12/08 12:56:17;;;;;;;13.57;10.15;;;4.60;81.70;;;;;;4980538;28;20045;-67
2021/12/08 12:58:46;;;;;;;14.48;9.20;;;4.60;81.50;;;;;;5045088;28;20048;-68
2021/12/08 13:01:24;;;;;;;10.20;8.00;;;4.60;81.40;;;;;;5060492;28;20076;-69
2021/12/08 13:03:56;;;;;;;12.00;8.68;;;4.60;81.30;;;;;;5061968;28;20033;-68
2021/12/08 13:06:42;;;;;;;12.48;8.75;;;4.60;81.30;;;;;;5060060;28;20033;-67
2021/12/08 13:09:10;;;;;;;12.07;8.65;;;4.60;81.40;;;;;;5059888;28;20602;-67
2021/12/08 13:11:59;;;;;;;11.43;7.78;;;4.60;81.30;;;;;;5059083;28;20399;-68
2021/12/08 13:14:30;;;;;;;9.93;7.85;;;4.60;81.30;;;;;;5060499;28;20449;-67
2021/12/08 13:17:21;;;;;;;12.63;8.77;;;4.60;81.50;;;;;;5060870;28;20511;-68
2021/12/08 13:19:52;;;;;;;11.52;8.55;;;4.60;81.80;;;;;;5060500;28;20044;-68
2021/12/08 13:22:46;;;;;;;12.05;8.85;;;4.60;81.60;;;;;;5058694;28;20039;-68
2021/12/08 13:25:39;;;;;;;14.25;10.65;;;4.60;81.60;;;;;;5046531;28;20036;-67
2021/12/08 13:28:17;;;;;;;15.80;10.90;;;4.60;81.50;;;;;;5061247;28;20119;-68
2021/12/08 13:30:49;;;;;;;15.75;10.65;;;4.60;81.40;;;;;;5058294;28;20037;-68
2021/12/08 13:33:29;;;;;;;14.60;10.65;;;4.70;81.40;;;;;;5058636;28;20040;-69
2021/12/08 13:35:56;;;;;;;14.90;10.15;;;4.60;81.40;;;;;;5061352;28;20254;-67
2021/12/08 13:38:23;;;;;;;10.98;8.68;;;4.60;81.40;;;;;;5060586;28;20032;-67
2021/12/08 13:40:53;;;;;;;13.25;9.43;;;4.50;81.40;;;;;;5059553;28;20028;-66
2021/12/08 13:43:38;;;;;;;12.13;8.95;;;4.60;81.40;;;;;;5060957;28;20037;-69
2021/12/08 13:46:08;;;;;;;;;;;4.60;81.60;;;;;;5060776;28;20400;-67
2021/12/08 13:48:35;;;;;;;21.63;12.77;;;4.60;81.60;;;;;;5059534;28;20391;-67
2021/12/08 13:51:21;;;;;;;16.27;10.10;;;4.60;81.20;;;;;;5060380;28;20205;-67
2021/12/08 13:54:24;;;;;;;12.30;8.05;;;4.60;81.30;;;;;;5060327;28;20399;-67
2021/12/08 13:56:51;;;;;;;11.68;8.30;;;4.50;81.20;;;;;;5059722;28;21857;-68
2021/12/08 13:59:41;;;;;;;12.18;8.18;;;4.50;81.10;;;;;;5059867;28;20511;-68
2021/12/08 14:02:32;;;;;;;12.93;8.98;;;4.50;81.40;;;;;;5059037;28;20680;-67
2021/12/08 14:05:08;;;;;;;15.68;10.38;;;4.50;81.40;;;;;;5059430;28;20029;-67
2021/12/08 14:07:41;;;;;;;16.85;12.73;;;4.40;81.30;;;;;;5056910;28;20121;-67
2021/12/08 14:10:16;;;;;;;16.50;10.93;;;4.40;81.30;;;;;;5061298;28;20120;-69